sensor_id;sensor_type;location;lat;lon;timestamp;pressure;altitude;pressure_sealevel;temperature;humidity
60371;BME280;48550;40.588;49.684;2023-01-28T00:00:06;102133.06;;;5.02;100.00
60371;BME280;48550;40.588;49.684;2023-01-28T00:02:36;102135.25;;;5.06;100.00
60371;BME280;48550;40.588;49.684;2023-01-28T00:05:02;102120.44;;;5.04;100.00
60371;BME280;48550;40.588;49.684;2023-01-28T00:07:28;102119.13;;;5.08;100.00
60371;BME280;48550;40.588;49.684;2023-01-28T00:09:54;102123.09;;;5.04;100.00
60371;BME280;48550;40.588;49.684;2023-01-28T00:12:20;102111.13;;;5.00;100.00
60371;BME280;48550;40.588;49.684;2023-01-28T00:14:45;102108.63;;;4.98;100.00
60371;BME280;48550;40.588;49.684;2023-01-28T00:17:13;102108.47;;;5.00;100.00
60371;BME280;48550;40.588;49.684;2023-01-28T00:19:39;102107.47;;;5.01;100.00
60371;BME280;48550;40.588;49.684;2023-01-28T00:22:05;102104.66;;;5.10;100.00
60371;BME280;48550;40.588;49.684;2023-01-28T00:24:31;102115.66;;;5.16;100.00
60371;BME280;48550;40.588;49.684;2023-01-28T00:26:57;102104.00;;;5.17;100.00
60371;BME280;48550;40.588;49.684;2023-01-28T00:29:22;102111.00;;;5.18;100.00
60371;BME280;48550;40.588;49.684;2023-01-28T00:31:48;102105.22;;;5.22;100.00
60371;BME280;48550;40.588;49.684;2023-01-28T00:34:14;102099.72;;;5.24;100.00
60371;BME280;48550;40.588;49.684;2023-01-28T00:36:40;102108.22;;;5.27;100.00
60371;BME280;48550;40.588;49.684;2023-01-28T00:39:09;102110.88;;;5.27;100.00
60371;BME280;48550;40.588;49.684;2023-01-28T00:41:36;102108.88;;;5.29;100.00
60371;BME280;48550;40.588;49.684;2023-01-28T00:44:02;102107.41;;;5.35;100.00
60371;BME280;48550;40.588;49.684;2023-01-28T00:46:27;102107.91;;;5.38;100.00
60371;BME280;48550;40.588;49.684;2023-01-28T00:48:53;102108.56;;;5.49;100.00
60371;BME280;48550;40.588;49.684;2023-01-28T00:51:19;102100.25;;;5.60;100.00
60371;BME280;48550;40.588;49.684;2023-01-28T00:53:46;102106.59;;;5.59;100.00
60371;BME280;48550;40.588;49.684;2023-01-28T00:56:14;102105.59;;;5.60;100.00
60371;BME280;48550;40.588;49.684;2023-01-28T00:58:40;102104.59;;;5.69;100.00
60371;BME280;48550;40.588;49.684;2023-01-28T01:01:18;102104.75;;;5.75;100.00
60371;BME280;48550;40.588;49.684;2023-01-28T01:03:44;102102.59;;;5.71;100.00
60371;BME280;48550;40.588;49.684;2023-01-28T01:06:11;102095.75;;;5.68;100.00
60371;BME280;48550;40.588;49.684;2023-01-28T01:08:37;102106.59;;;5.67;100.00
60371;BME280;48550;40.588;49.684;2023-01-28T01:11:10;102095.75;;;5.68;100.00
60371;BME280;48550;40.588;49.684;2023-01-28T01:13:36;102098.25;;;5.70;100.00
60371;BME280;48550;40.588;49.684;2023-01-28T01:16:04;102090.94;;;5.80;100.00
60371;BME280;48550;40.588;49.684;2023-01-28T01:18:31;102088.75;;;5.75;100.00
60371;BME280;48550;40.588;49.684;2023-01-28T01:20:58;102094.94;;;5.76;100.00
60371;BME280;48550;40.588;49.684;2023-01-28T01:23:28;102092.44;;;5.74;100.00
60371;BME280;48550;40.588;49.684;2023-01-28T01:25:55;102083.94;;;5.79;100.00
60371;BME280;48550;40.588;49.684;2023-01-28T01:28:21;102079.59;;;5.78;100.00
60371;BME280;48550;40.588;49.684;2023-01-28T01:30:47;102079.28;;;5.89;100.00
60371;BME280;48550;40.588;49.684;2023-01-28T01:33:14;102070.47;;;5.97;100.00
60371;BME280;48550;40.588;49.684;2023-01-28T01:35:40;102077.28;;;5.91;100.00
60371;BME280;48550;40.588;49.684;2023-01-28T01:38:06;102069.31;;;5.99;100.00
60371;BME280;48550;40.588;49.684;2023-01-28T01:40:32;102062.16;;;6.00;100.00
60371;BME280;48550;40.588;49.684;2023-01-28T01:42:57;102058.16;;;5.96;100.00
60371;BME280;48550;40.588;49.684;2023-01-28T01:45:24;102051.13;;;5.79;100.00
60371;BME280;48550;40.588;49.684;2023-01-28T01:50:36;102055.13;;;5.66;100.00
60371;BME280;48550;40.588;49.684;2023-01-28T01:53:09;102054.47;;;5.64;100.00
60371;BME280;48550;40.588;49.684;2023-01-28T01:55:38;102061.13;;;5.77;100.00
60371;BME280;48550;40.588;49.684;2023-01-28T01:58:12;102052.66;;;5.89;100.00
60371;BME280;48550;40.588;49.684;2023-01-28T02:00:39;102059.81;;;5.97;100.00
60371;BME280;48550;40.588;49.684;2023-01-28T02:03:06;102059.97;;;6.03;100.00
60371;BME280;48550;40.588;49.684;2023-01-28T02:05:33;102055.63;;;5.94;100.00
60371;BME280;48550;40.588;49.684;2023-01-28T02:07:59;102064.28;;;5.88;100.00
60371;BME280;48550;40.588;49.684;2023-01-28T02:10:44;102058.63;;;5.83;100.00
60371;BME280;48550;40.588;49.684;2023-01-28T02:13:11;102052.28;;;5.84;100.00
60371;BME280;48550;40.588;49.684;2023-01-28T02:15:38;102048.16;;;5.90;100.00
60371;BME280;48550;40.588;49.684;2023-01-28T02:18:03;102055.94;;;5.83;100.00
60371;BME280;48550;40.588;49.684;2023-01-28T02:23:16;102064.44;;;5.79;100.00
60371;BME280;48550;40.588;49.684;2023-01-28T02:31:52;102056.47;;;5.70;100.00
60371;BME280;48550;40.588;49.684;2023-01-28T02:36:57;102050.81;;;5.65;100.00
60371;BME280;48550;40.588;49.684;2023-01-28T02:39:56;102051.97;;;5.63;100.00
60371;BME280;48550;40.588;49.684;2023-01-28T02:42:34;102057.63;;;5.76;100.00
60371;BME280;48550;40.588;49.684;2023-01-28T02:45:02;102059.63;;;5.74;100.00
60371;BME280;48550;40.588;49.684;2023-01-28T02:47:31;102053.31;;;5.67;100.00
60371;BME280;48550;40.588;49.684;2023-01-28T02:50:17;102051.81;;;5.72;100.00
60371;BME280;48550;40.588;49.684;2023-01-28T02:56:10;102055.81;;;5.60;100.00
60371;BME280;48550;40.588;49.684;2023-01-28T02:58:47;102052.97;;;5.62;100.00
60371;BME280;48550;40.588;49.684;2023-01-28T03:01:24;102061.63;;;5.56;100.00
60371;BME280;48550;40.588;49.684;2023-01-28T03:03:58;102054.00;;;5.45;100.00
60371;BME280;48550;40.588;49.684;2023-01-28T03:06:38;102056.31;;;5.39;100.00
60371;BME280;48550;40.588;49.684;2023-01-28T03:09:07;102051.16;;;5.30;100.00
60371;BME280;48550;40.588;49.684;2023-01-28T03:12:11;102053.66;;;5.23;100.00
60371;BME280;48550;40.588;49.684;2023-01-28T03:15:11;102053.44;;;5.17;100.00
60371;BME280;48550;40.588;49.684;2023-01-28T03:23:47;102068.94;;;5.21;100.00
60371;BME280;48550;40.588;49.684;2023-01-28T03:26:40;102058.81;;;5.25;100.00
60371;BME280;48550;40.588;49.684;2023-01-28T03:29:28;102065.97;;;5.32;100.00
60371;BME280;48550;40.588;49.684;2023-01-28T03:32:13;102068.28;;;5.27;100.00
60371;BME280;48550;40.588;49.684;2023-01-28T03:34:58;102056.47;;;5.30;100.00
60371;BME280;48550;40.588;49.684;2023-01-28T03:37:42;102059.81;;;5.32;100.00
60371;BME280;48550;40.588;49.684;2023-01-28T03:40:08;102054.16;;;5.35;100.00
60371;BME280;48550;40.588;49.684;2023-01-28T03:42:34;102055.66;;;5.29;100.00
60371;BME280;48550;40.588;49.684;2023-01-28T03:45:00;102060.25;;;5.19;100.00
60371;BME280;48550;40.588;49.684;2023-01-28T03:47:29;102063.13;;;5.26;100.00
60371;BME280;48550;40.588;49.684;2023-01-28T03:49:57;102057.31;;;5.22;100.00
60371;BME280;48550;40.588;49.684;2023-01-28T03:52:29;102053.91;;;5.04;100.00
60371;BME280;48550;40.588;49.684;2023-01-28T03:54:55;102057.56;;;4.95;100.00
60371;BME280;48550;40.588;49.684;2023-01-28T03:57:23;102057.22;;;4.90;100.00
60371;BME280;48550;40.588;49.684;2023-01-28T03:59:49;102057.72;;;4.85;100.00
60371;BME280;48550;40.588;49.684;2023-01-28T04:02:20;102059.69;;;4.83;100.00
60371;BME280;48550;40.588;49.684;2023-01-28T04:04:47;102066.16;;;4.81;100.00
60371;BME280;48550;40.588;49.684;2023-01-28T04:07:14;102055.03;;;4.85;100.00
60371;BME280;48550;40.588;49.684;2023-01-28T04:09:40;102054.22;;;4.93;100.00
60371;BME280;48550;40.588;49.684;2023-01-28T04:12:07;102053.41;;;5.00;100.00
60371;BME280;48550;40.588;49.684;2023-01-28T04:14:33;102054.09;;;5.02;100.00
60371;BME280;48550;40.588;49.684;2023-01-28T04:16:59;102048.75;;;5.02;100.00
60371;BME280;48550;40.588;49.684;2023-01-28T04:19:25;102057.56;;;5.03;100.00
60371;BME280;48550;40.588;49.684;2023-01-28T04:21:51;102058.56;;;5.02;100.00
60371;BME280;48550;40.588;49.684;2023-01-28T04:24:21;102062.09;;;5.10;100.00
60371;BME280;48550;40.588;49.684;2023-01-28T04:26:47;102040.50;;;5.22;100.00
60371;BME280;48550;40.588;49.684;2023-01-28T04:29:13;102054.66;;;5.38;100.00
60371;BME280;48550;40.588;49.684;2023-01-28T04:31:39;102057.81;;;5.50;100.00
60371;BME280;48550;40.588;49.684;2023-01-28T04:34:05;102060.47;;;5.74;100.00
60371;BME280;48550;40.588;49.684;2023-01-28T04:36:30;102056.78;;;6.08;100.00
60371;BME280;48550;40.588;49.684;2023-01-28T04:38:56;102059.44;;;6.16;100.00
60371;BME280;48550;40.588;49.684;2023-01-28T04:41:22;102060.09;;;6.96;100.00
60371;BME280;48550;40.588;49.684;2023-01-28T04:43:47;102062.44;;;7.68;100.00
60371;BME280;48550;40.588;49.684;2023-01-28T04:46:14;102060.72;;;7.52;100.00
60371;BME280;48550;40.588;49.684;2023-01-28T04:48:40;102064.94;;;8.22;100.00
60371;BME280;48550;40.588;49.684;2023-01-28T04:51:06;102072.88;;;9.32;100.00
60371;BME280;48550;40.588;49.684;2023-01-28T04:53:32;102073.25;;;9.50;100.00
60371;BME280;48550;40.588;49.684;2023-01-28T04:55:58;102074.72;;;10.02;100.00
60371;BME280;48550;40.588;49.684;2023-01-28T04:58:24;102073.38;;;10.40;89.28
60371;BME280;48550;40.588;49.684;2023-01-28T05:00:55;102063.22;;;10.77;88.78
60371;BME280;48550;40.588;49.684;2023-01-28T05:03:21;102067.91;;;11.23;78.07
60371;BME280;48550;40.588;49.684;2023-01-28T05:05:47;102059.28;;;11.80;75.89
60371;BME280;48550;40.588;49.684;2023-01-28T05:08:12;102061.75;;;11.88;68.87
60371;BME280;48550;40.588;49.684;2023-01-28T05:10:38;102077.03;;;11.68;74.84
60371;BME280;48550;40.588;49.684;2023-01-28T05:13:05;102083.25;;;11.55;73.57
60371;BME280;48550;40.588;49.684;2023-01-28T05:15:30;102081.44;;;11.95;70.40
60371;BME280;48550;40.588;49.684;2023-01-28T05:17:56;102089.75;;;10.52;80.71
60371;BME280;48550;40.588;49.684;2023-01-28T05:20:22;102087.22;;;10.44;87.01
60371;BME280;48550;40.588;49.684;2023-01-28T05:22:48;102085.09;;;11.55;75.57
60371;BME280;48550;40.588;49.684;2023-01-28T05:25:14;102094.25;;;12.13;70.81
60371;BME280;48550;40.588;49.684;2023-01-28T05:27:39;102093.22;;;11.81;69.18
60371;BME280;48550;40.588;49.684;2023-01-28T05:30:06;102097.47;;;10.68;81.49
60371;BME280;48550;40.588;49.684;2023-01-28T05:32:31;102091.47;;;10.04;90.27
60371;BME280;48550;40.588;49.684;2023-01-28T05:34:57;102086.97;;;9.83;95.52
60371;BME280;48550;40.588;49.684;2023-01-28T05:37:26;102088.97;;;9.53;97.26
60371;BME280;48550;40.588;49.684;2023-01-28T05:39:51;102081.31;;;10.62;79.40
60371;BME280;48550;40.588;49.684;2023-01-28T05:42:17;102082.84;;;11.58;68.96
60371;BME280;48550;40.588;49.684;2023-01-28T05:44:45;102075.84;;;11.97;65.02
60371;BME280;48550;40.588;49.684;2023-01-28T05:47:11;102079.16;;;11.92;61.79
60371;BME280;48550;40.588;49.684;2023-01-28T05:49:36;102073.34;;;11.82;65.09
60371;BME280;48550;40.588;49.684;2023-01-28T05:52:02;102073.00;;;12.56;59.40
60371;BME280;48550;40.588;49.684;2023-01-28T05:54:28;102076.03;;;12.08;61.27
60371;BME280;48550;40.588;49.684;2023-01-28T05:56:53;102073.88;;;12.44;58.37
60371;BME280;48550;40.588;49.684;2023-01-28T05:59:19;102072.63;;;12.46;57.86
60371;BME280;48550;40.588;49.684;2023-01-28T06:01:45;102065.44;;;12.27;58.85
60371;BME280;48550;40.588;49.684;2023-01-28T06:04:11;102058.44;;;12.19;58.84
60371;BME280;48550;40.588;49.684;2023-01-28T06:06:36;102055.44;;;12.47;57.19
60371;BME280;48550;40.588;49.684;2023-01-28T06:09:02;102060.88;;;12.34;57.71
60371;BME280;48550;40.588;49.684;2023-01-28T06:11:28;102064.66;;;11.87;60.15
60371;BME280;48550;40.588;49.684;2023-01-28T06:13:53;102066.53;;;11.93;60.54
60371;BME280;48550;40.588;49.684;2023-01-28T06:16:19;102053.00;;;12.32;59.17
60371;BME280;48550;40.588;49.684;2023-01-28T06:18:45;102056.47;;;12.97;55.84
60371;BME280;48550;40.588;49.684;2023-01-28T06:21:10;102052.06;;;12.71;55.93
60371;BME280;48550;40.588;49.684;2023-01-28T06:23:36;102047.44;;;12.85;55.26
60371;BME280;48550;40.588;49.684;2023-01-28T06:26:02;102048.41;;;12.46;57.09
60371;BME280;48550;40.588;49.684;2023-01-28T06:28:27;102037.31;;;13.19;53.97
60371;BME280;48550;40.588;49.684;2023-01-28T06:30:53;102036.78;;;13.35;53.39
60371;BME280;48550;40.588;49.684;2023-01-28T06:33:19;102033.44;;;13.40;53.46
60371;BME280;48550;40.588;49.684;2023-01-28T06:35:45;102040.56;;;14.45;49.44
60371;BME280;48550;40.588;49.684;2023-01-28T06:38:12;102038.19;;;14.67;49.00
60371;BME280;48550;40.588;49.684;2023-01-28T06:40:38;102044.63;;;13.43;53.35
60371;BME280;48550;40.588;49.684;2023-01-28T06:43:04;102036.50;;;13.93;52.88
60371;BME280;48550;40.588;49.684;2023-01-28T06:45:30;102030.47;;;13.73;52.34
60371;BME280;48550;40.588;49.684;2023-01-28T06:47:56;102032.81;;;12.55;56.66
60371;BME280;48550;40.588;49.684;2023-01-28T06:50:21;102034.00;;;11.15;67.63
60371;BME280;48550;40.588;49.684;2023-01-28T06:52:47;102024.75;;;10.63;76.03
60371;BME280;48550;40.588;49.684;2023-01-28T06:55:13;102021.38;;;11.75;64.63
60371;BME280;48550;40.588;49.684;2023-01-28T06:57:40;102007.50;;;11.12;69.74
60371;BME280;48550;40.588;49.684;2023-01-28T07:00:08;102017.97;;;10.74;72.33
60371;BME280;48550;40.588;49.684;2023-01-28T07:02:35;102017.44;;;10.16;78.82
60371;BME280;48550;40.588;49.684;2023-01-28T07:05:02;102009.97;;;10.05;80.19
60371;BME280;48550;40.588;49.684;2023-01-28T07:07:28;102005.22;;;9.72;84.86
60371;BME280;48550;40.588;49.684;2023-01-28T07:09:54;102007.78;;;9.87;88.96
60371;BME280;48550;40.588;49.684;2023-01-28T07:12:19;102004.63;;;9.77;84.23
60371;BME280;48550;40.588;49.684;2023-01-28T07:14:45;101997.03;;;9.31;89.38
60371;BME280;48550;40.588;49.684;2023-01-28T07:17:11;101992.84;;;9.50;90.16
60371;BME280;48550;40.588;49.684;2023-01-28T07:19:36;101994.56;;;9.08;92.09
60371;BME280;48550;40.588;49.684;2023-01-28T07:22:02;101992.03;;;8.64;97.23
60371;BME280;48550;40.588;49.684;2023-01-28T07:24:28;101978.81;;;8.63;99.08
60371;BME280;48550;40.588;49.684;2023-01-28T07:26:54;101983.81;;;8.87;98.87
60371;BME280;48550;40.588;49.684;2023-01-28T07:29:20;101981.66;;;9.40;93.32
60371;BME280;48550;40.588;49.684;2023-01-28T07:31:46;101967.13;;;9.55;91.74
60371;BME280;48550;40.588;49.684;2023-01-28T07:34:12;101970.06;;;9.88;88.23
60371;BME280;48550;40.588;49.684;2023-01-28T07:36:38;101961.34;;;9.52;88.04
60371;BME280;48550;40.588;49.684;2023-01-28T07:39:04;101955.81;;;9.60;92.71
60371;BME280;48550;40.588;49.684;2023-01-28T07:41:31;101958.91;;;9.85;87.86
60371;BME280;48550;40.588;49.684;2023-01-28T07:43:57;101950.66;;;10.21;85.08
60371;BME280;48550;40.588;49.684;2023-01-28T07:46:23;101943.84;;;9.84;83.53
60371;BME280;48550;40.588;49.684;2023-01-28T07:48:48;101942.19;;;9.83;83.17
60371;BME280;48550;40.588;49.684;2023-01-28T07:51:14;101941.41;;;10.37;87.44
60371;BME280;48550;40.588;49.684;2023-01-28T07:53:40;101933.44;;;10.57;79.46
60371;BME280;48550;40.588;49.684;2023-01-28T07:56:06;101932.34;;;10.38;79.84
60371;BME280;48550;40.588;49.684;2023-01-28T07:58:32;101923.72;;;10.08;79.24
60371;BME280;48550;40.588;49.684;2023-01-28T08:00:59;101918.66;;;9.85;82.04
60371;BME280;48550;40.588;49.684;2023-01-28T08:03:26;101913.00;;;9.67;86.22
60371;BME280;48550;40.588;49.684;2023-01-28T08:05:54;101896.66;;;9.62;86.53
60371;BME280;48550;40.588;49.684;2023-01-28T08:08:21;101895.19;;;9.24;90.27
60371;BME280;48550;40.588;49.684;2023-01-28T08:10:47;101899.72;;;9.24;90.86
60371;BME280;48550;40.588;49.684;2023-01-28T08:13:14;101891.47;;;9.26;90.28
60371;BME280;48550;40.588;49.684;2023-01-28T08:15:40;101885.78;;;9.35;89.10
60371;BME280;48550;40.588;49.684;2023-01-28T08:18:08;101879.00;;;9.39;88.82
60371;BME280;48550;40.588;49.684;2023-01-28T08:20:34;101878.06;;;9.53;88.97
60371;BME280;48550;40.588;49.684;2023-01-28T08:23:16;101872.94;;;10.00;82.60
60371;BME280;48550;40.588;49.684;2023-01-28T08:25:43;101855.72;;;10.22;83.36
60371;BME280;48550;40.588;49.684;2023-01-28T08:28:09;101865.84;;;10.33;79.10
60371;BME280;48550;40.588;49.684;2023-01-28T08:30:37;101847.25;;;10.25;79.69
60371;BME280;48550;40.588;49.684;2023-01-28T08:33:04;101848.78;;;10.61;75.32
60371;BME280;48550;40.588;49.684;2023-01-28T08:35:31;101842.59;;;10.80;73.59
60371;BME280;48550;40.588;49.684;2023-01-28T08:37:59;101836.19;;;10.74;74.25
60371;BME280;48550;40.588;49.684;2023-01-28T08:40:25;101835.97;;;10.69;73.22
60371;BME280;48550;40.588;49.684;2023-01-28T08:42:52;101824.84;;;10.72;74.69
60371;BME280;48550;40.588;49.684;2023-01-28T08:45:20;101826.25;;;10.42;78.58
60371;BME280;48550;40.588;49.684;2023-01-28T08:48:00;101821.41;;;10.17;79.68
60371;BME280;48550;40.588;49.684;2023-01-28T08:50:29;101816.22;;;10.09;81.36
60371;BME280;48550;40.588;49.684;2023-01-28T08:52:59;101809.63;;;10.05;80.22
60371;BME280;48550;40.588;49.684;2023-01-28T08:55:26;101808.78;;;10.05;81.02
60371;BME280;48550;40.588;49.684;2023-01-28T08:57:52;101793.69;;;9.84;83.24
60371;BME280;48550;40.588;49.684;2023-01-28T09:00:19;101791.63;;;9.93;87.46
60371;BME280;48550;40.588;49.684;2023-01-28T09:02:45;101781.34;;;9.96;89.53
60371;BME280;48550;40.588;49.684;2023-01-28T09:05:11;101772.28;;;10.04;89.97
60371;BME280;48550;40.588;49.684;2023-01-28T09:07:37;101776.41;;;10.13;90.90
60371;BME280;48550;40.588;49.684;2023-01-28T09:10:04;101769.75;;;9.82;93.55
60371;BME280;48550;40.588;49.684;2023-01-28T09:12:31;101762.31;;;9.84;94.27
60371;BME280;48550;40.588;49.684;2023-01-28T09:14:56;101759.88;;;10.03;91.32
60371;BME280;48550;40.588;49.684;2023-01-28T09:17:22;101745.50;;;10.30;89.70
60371;BME280;48550;40.588;49.684;2023-01-28T09:19:48;101742.78;;;10.17;89.78
60371;BME280;48550;40.588;49.684;2023-01-28T09:22:14;101741.69;;;9.85;91.68
60371;BME280;48550;40.588;49.684;2023-01-28T09:24:40;101741.88;;;9.70;93.97
60371;BME280;48550;40.588;49.684;2023-01-28T09:27:06;101742.16;;;10.02;90.66
60371;BME280;48550;40.588;49.684;2023-01-28T09:29:34;101739.03;;;9.85;91.95
60371;BME280;48550;40.588;49.684;2023-01-28T09:32:01;101742.72;;;9.77;94.23
60371;BME280;48550;40.588;49.684;2023-01-28T09:34:27;101735.09;;;9.87;95.73
60371;BME280;48550;40.588;49.684;2023-01-28T09:36:53;101729.75;;;10.01;95.07
60371;BME280;48550;40.588;49.684;2023-01-28T09:39:18;101727.28;;;9.99;93.11
60371;BME280;48550;40.588;49.684;2023-01-28T09:42:18;101720.69;;;10.02;94.64
60371;BME280;48550;40.588;49.684;2023-01-28T09:47:33;101705.41;;;9.82;96.83
60371;BME280;48550;40.588;49.684;2023-01-28T09:50:04;101707.91;;;9.97;96.76
60371;BME280;48550;40.588;49.684;2023-01-28T09:52:34;101700.69;;;10.11;93.74
60371;BME280;48550;40.588;49.684;2023-01-28T09:55:29;101700.06;;;10.09;94.09
60371;BME280;48550;40.588;49.684;2023-01-28T09:57:56;101691.81;;;10.04;93.35
60371;BME280;48550;40.588;49.684;2023-01-28T10:00:47;101691.56;;;9.79;96.71
60371;BME280;48550;40.588;49.684;2023-01-28T10:09:14;101678.69;;;9.48;100.00
60371;BME280;48550;40.588;49.684;2023-01-28T10:14:58;101672.34;;;9.62;98.35
60371;BME280;48550;40.588;49.684;2023-01-28T10:20:06;101680.72;;;9.39;100.00
60371;BME280;48550;40.588;49.684;2023-01-28T10:25:29;101672.03;;;9.24;100.00
60371;BME280;48550;40.588;49.684;2023-01-28T10:27:56;101679.16;;;9.04;100.00
60371;BME280;48550;40.588;49.684;2023-01-28T10:30:28;101686.38;;;9.10;100.00
60371;BME280;48550;40.588;49.684;2023-01-28T10:33:02;101682.09;;;9.22;100.00
60371;BME280;48550;40.588;49.684;2023-01-28T10:35:41;101672.22;;;9.22;100.00
60371;BME280;48550;40.588;49.684;2023-01-28T10:38:13;101670.16;;;9.18;100.00
60371;BME280;48550;40.588;49.684;2023-01-28T10:40:43;101670.31;;;9.10;100.00
60371;BME280;48550;40.588;49.684;2023-01-28T10:43:14;101668.94;;;8.86;100.00
60371;BME280;48550;40.588;49.684;2023-01-28T10:45:58;101663.31;;;9.09;100.00
60371;BME280;48550;40.588;49.684;2023-01-28T10:48:36;101647.03;;;9.10;100.00
60371;BME280;48550;40.588;49.684;2023-01-28T10:51:04;101653.91;;;9.33;100.00
60371;BME280;48550;40.588;49.684;2023-01-28T10:53:44;101659.75;;;9.56;100.00
60371;BME280;48550;40.588;49.684;2023-01-28T10:56:17;101656.72;;;9.85;100.00
60371;BME280;48550;40.588;49.684;2023-01-28T10:59:06;101669.53;;;10.03;100.00
60371;BME280;48550;40.588;49.684;2023-01-28T11:01:49;101659.22;;;10.27;100.00
60371;BME280;48550;40.588;49.684;2023-01-28T11:06:54;101666.66;;;10.31;100.00
60371;BME280;48550;40.588;49.684;2023-01-28T11:09:23;101659.25;;;10.46;96.19
60371;BME280;48550;40.588;49.684;2023-01-28T11:11:49;101662.34;;;10.50;96.43
60371;BME280;48550;40.588;49.684;2023-01-28T11:14:23;101654.06;;;10.58;97.10
60371;BME280;48550;40.588;49.684;2023-01-28T11:16:51;101647.88;;;10.58;99.59
60371;BME280;48550;40.588;49.684;2023-01-28T11:19:20;101657.34;;;10.67;96.52
60371;BME280;48550;40.588;49.684;2023-01-28T11:21:50;101658.00;;;10.49;97.63
60371;BME280;48550;40.588;49.684;2023-01-28T11:24:21;101649.28;;;10.67;95.56
60371;BME280;48550;40.588;49.684;2023-01-28T11:26:51;101650.16;;;10.34;98.80
60371;BME280;48550;40.588;49.684;2023-01-28T11:29:26;101653.84;;;9.80;100.00
60371;BME280;48550;40.588;49.684;2023-01-28T11:31:53;101656.28;;;9.69;100.00
60371;BME280;48550;40.588;49.684;2023-01-28T11:34:19;101652.72;;;9.55;100.00
60371;BME280;48550;40.588;49.684;2023-01-28T11:36:53;101650.25;;;9.47;100.00
60371;BME280;48550;40.588;49.684;2023-01-28T11:39:24;101649.63;;;9.51;100.00
60371;BME280;48550;40.588;49.684;2023-01-28T11:41:53;101651.91;;;9.48;100.00
60371;BME280;48550;40.588;49.684;2023-01-28T11:44:22;101636.38;;;9.30;100.00
60371;BME280;48550;40.588;49.684;2023-01-28T12:06:29;101619.53;;;8.47;100.00
60371;BME280;48550;40.588;49.684;2023-01-28T12:15:04;101625.63;;;8.35;100.00
60371;BME280;48550;40.588;49.684;2023-01-28T12:17:38;101611.22;;;8.36;100.00
60371;BME280;48550;40.588;49.684;2023-01-28T12:28:25;101616.66;;;8.00;100.00
60371;BME280;48550;40.588;49.684;2023-01-28T12:34:22;101620.25;;;7.85;100.00
60371;BME280;48550;40.588;49.684;2023-01-28T12:37:06;101615.31;;;7.82;100.00
60371;BME280;48550;40.588;49.684;2023-01-28T12:42:44;101619.03;;;7.88;100.00
60371;BME280;48550;40.588;49.684;2023-01-28T12:45:30;101637.75;;;7.88;100.00
60371;BME280;48550;40.588;49.684;2023-01-28T12:48:06;101627.25;;;7.86;100.00
60371;BME280;48550;40.588;49.684;2023-01-28T12:50:41;101641.44;;;7.87;100.00
60371;BME280;48550;40.588;49.684;2023-01-28T12:53:45;101630.94;;;7.85;100.00
60371;BME280;48550;40.588;49.684;2023-01-28T12:56:37;101630.19;;;7.91;100.00
60371;BME280;48550;40.588;49.684;2023-01-28T12:59:45;101640.38;;;7.81;100.00
60371;BME280;48550;40.588;49.684;2023-01-28T13:07:43;101645.09;;;7.79;100.00
60371;BME280;48550;40.588;49.684;2023-01-28T13:10:24;101648.25;;;7.68;100.00
60371;BME280;48550;40.588;49.684;2023-01-28T13:12:52;101643.88;;;7.60;100.00
60371;BME280;48550;40.588;49.684;2023-01-28T13:15:19;101644.50;;;7.62;100.00
60371;BME280;48550;40.588;49.684;2023-01-28T13:17:59;101636.44;;;7.56;100.00
60371;BME280;48550;40.588;49.684;2023-01-28T13:23:23;101652.47;;;7.41;100.00
60371;BME280;48550;40.588;49.684;2023-01-28T13:25:52;101655.16;;;7.41;100.00
60371;BME280;48550;40.588;49.684;2023-01-28T13:28:28;101651.13;;;7.45;100.00
60371;BME280;48550;40.588;49.684;2023-01-28T13:31:06;101647.81;;;7.43;100.00
60371;BME280;48550;40.588;49.684;2023-01-28T13:33:38;101647.13;;;7.41;100.00
60371;BME280;48550;40.588;49.684;2023-01-28T13:36:44;101646.59;;;7.46;100.00
60371;BME280;48550;40.588;49.684;2023-01-28T13:39:18;101647.31;;;7.40;100.00
60371;BME280;48550;40.588;49.684;2023-01-28T13:41:53;101647.31;;;7.40;100.00
60371;BME280;48550;40.588;49.684;2023-01-28T13:44:26;101652.66;;;7.40;100.00
60371;BME280;48550;40.588;49.684;2023-01-28T13:47:11;101660.22;;;7.36;100.00
60371;BME280;48550;40.588;49.684;2023-01-28T13:49:47;101659.78;;;7.32;100.00
60371;BME280;48550;40.588;49.684;2023-01-28T13:52:18;101652.34;;;7.28;100.00
60371;BME280;48550;40.588;49.684;2023-01-28T13:54:55;101649.22;;;7.24;100.00
60371;BME280;48550;40.588;49.684;2023-01-28T14:03:27;101643.34;;;7.14;100.00
60371;BME280;48550;40.588;49.684;2023-01-28T14:17:48;101640.53;;;7.01;100.00
60371;BME280;48550;40.588;49.684;2023-01-28T14:20:37;101651.38;;;6.99;100.00
60371;BME280;48550;40.588;49.684;2023-01-28T14:23:15;101661.22;;;6.99;100.00
60371;BME280;48550;40.588;49.684;2023-01-28T14:34:17;101651.81;;;7.18;100.00
60371;BME280;48550;40.588;49.684;2023-01-28T14:36:47;101653.00;;;7.15;100.00
60371;BME280;48550;40.588;49.684;2023-01-28T14:39:17;101659.38;;;7.14;100.00
60371;BME280;48550;40.588;49.684;2023-01-28T14:41:47;101658.16;;;7.17;100.00
60371;BME280;48550;40.588;49.684;2023-01-28T14:44:37;101656.22;;;7.25;100.00
60371;BME280;48550;40.588;49.684;2023-01-28T14:58:37;101667.41;;;7.36;100.00
60371;BME280;48550;40.588;49.684;2023-01-28T15:01:03;101674.59;;;7.35;100.00
60371;BME280;48550;40.588;49.684;2023-01-28T15:03:29;101672.19;;;7.40;100.00